Time;durP1;ratioP1;P1;durP2;ratioP2;P2;SDS_P1;SDS_P2;PMS_P1;PMS_P2;Temp;Humidity;BMP_temperature;BMP_pressure;BME280_temperature;BME280_humidity;BME280_pressure;Samples;Min_cycle;Max_cycle;Signal;HPM_P1;HPM_P2
2022/05/06 00:01:35;;;;;;;16.17;8.80;;;;;;;13.71;64.46;101156.00;5071804;28;20089;-72
2022/05/06 00:04:02;;;;;;;11.05;7.13;;;;;;;13.57;65.10;101166.03;5054931;28;20036;-73
2022/05/06 00:06:29;;;;;;;13.27;7.80;;;;;;;13.47;65.41;101165.34;5071647;28;20476;-71
2022/05/06 00:08:55;;;;;;;11.45;8.43;;;;;;;13.41;65.46;101162.84;5071234;28;20078;-71
2022/05/06 00:11:20;;;;;;;12.75;7.72;;;;;;;13.47;65.46;101162.69;5055190;28;20067;-71
2022/05/06 00:13:45;;;;;;;14.20;7.40;;;;;;;13.58;65.05;101150.13;5071086;28;20120;-71
2022/05/06 00:16:11;;;;;;;11.57;7.50;;;;;;;13.67;64.57;101152.56;5072932;28;20032;-72
2022/05/06 00:18:36;;;;;;;11.07;7.57;;;;;;;13.69;64.46;101144.63;5073045;28;20123;-72
2022/05/06 00:21:02;;;;;;;11.00;7.57;;;;;;;13.69;64.27;101142.00;5072240;28;20067;-71
2022/05/06 00:23:28;;;;;;;14.27;7.45;;;;;;;13.64;64.42;101143.84;5071504;28;20084;-72
2022/05/06 00:25:55;;;;;;;12.40;7.43;;;;;;;13.67;64.28;101141.13;5071158;28;20119;-71
2022/05/06 00:28:21;;;;;;;11.38;6.90;;;;;;;13.73;64.05;101146.28;5072584;28;20081;-71
2022/05/06 00:30:47;;;;;;;12.57;7.22;;;;;;;13.69;64.05;101145.50;5071078;28;20064;-71
2022/05/06 00:33:13;;;;;;;14.45;6.90;;;;;;;13.65;64.13;101148.25;5038465;28;20056;-72
2022/05/06 00:35:41;;;;;;;11.07;7.07;;;;;;;13.60;64.21;101148.31;5071309;28;20399;-72
2022/05/06 00:38:07;;;;;;;9.60;7.03;;;;;;;13.54;64.34;101143.19;5071288;28;20434;-73
2022/05/06 00:40:32;;;;;;;10.65;7.55;;;;;;;13.55;64.51;101153.69;5071390;28;20024;-71
2022/05/06 00:42:58;;;;;;;14.57;9.23;;;;;;;13.59;64.38;101145.72;5072166;28;20024;-71
2022/05/06 00:45:35;;;;;;;11.25;8.13;;;;;;;13.61;64.26;101142.16;5071348;28;20032;-71
2022/05/06 00:48:00;;;;;;;11.00;7.28;;;;;;;13.62;64.19;101143.03;5071985;28;20073;-71
2022/05/06 00:50:26;;;;;;;11.43;7.20;;;;;;;13.59;64.19;101149.22;5072634;28;20099;-71
2022/05/06 00:52:51;;;;;;;12.48;7.18;;;;;;;13.61;64.13;101144.78;5072339;28;20434;-71
2022/05/06 00:55:17;;;;;;;11.50;6.97;;;;;;;13.63;64.10;101142.09;5071710;28;20097;-70
2022/05/06 00:57:43;;;;;;;10.27;7.38;;;;;;;13.58;64.29;101144.84;5055505;28;20037;-69
2022/05/06 01:00:18;;;;;;;12.45;8.23;;;;;;;13.49;64.50;101140.66;5072049;28;20038;-71
2022/05/06 01:02:44;;;;;;;9.27;6.57;;;;;;;13.44;64.71;101152.19;5069551;28;20067;-70
2022/05/06 01:05:12;;;;;;;10.20;7.68;;;;;;;13.38;64.97;101152.34;5091540;28;20057;-70
2022/05/06 01:07:38;;;;;;;13.80;7.55;;;;;;;13.25;65.42;101154.38;5074453;28;20491;-68
2022/05/06 01:10:04;;;;;;;13.05;8.77;;;;;;;13.19;65.62;101147.38;5072566;28;20028;-71
2022/05/06 01:12:30;;;;;;;12.57;8.50;;;;;;;13.20;65.41;101150.91;5076035;28;20318;-71
2022/05/06 01:14:55;;;;;;;15.05;9.23;;;;;;;13.18;65.49;101147.44;5064992;28;20532;-71
2022/05/06 01:17:22;;;;;;;14.68;8.70;;;;;;;13.17;65.54;101150.97;5076231;28;20036;-72
2022/05/06 01:19:47;;;;;;;15.05;9.02;;;;;;;13.14;65.54;101151.03;5081220;28;20111;-71
2022/05/06 01:22:14;;;;;;;14.25;9.13;;;;;;;13.16;65.62;101152.72;5063304;28;20109;-68
2022/05/06 01:24:39;;;;;;;11.00;7.53;;;;;;;13.19;65.49;101157.94;5074163;28;20043;-70
2022/05/06 01:27:11;;;;;;;15.48;8.32;;;;;;;13.26;65.19;101150.81;5074432;28;20040;-70
2022/05/06 01:29:38;;;;;;;15.50;8.05;;;;;;;13.26;64.89;101153.47;5073905;28;20045;-69
2022/05/06 01:32:04;;;;;;;9.95;7.00;;;;;;;13.27;64.85;101150.78;5073991;28;20111;-71
2022/05/06 01:34:34;;;;;;;12.18;7.47;;;;;;;13.26;64.53;101153.47;5073387;28;20090;-72
2022/05/06 01:37:02;;;;;;;9.30;6.25;;;;;;;13.34;64.29;101150.66;5057941;28;20036;-70
2022/05/06 01:39:31;;;;;;;12.25;6.82;;;;;;;13.38;63.88;101153.19;5076179;28;20101;-70
2022/05/06 01:42:00;;;;;;;10.45;6.88;;;;;;;13.35;63.68;101147.97;5074203;28;20403;-70
2022/05/06 01:44:29;;;;;;;13.98;7.68;;;;;;;13.31;63.64;101148.94;5057697;28;20399;-70
2022/05/06 01:46:57;;;;;;;12.00;6.43;;;;;;;13.33;63.57;101147.16;5074296;28;20040;-72
2022/05/06 01:49:25;;;;;;;14.50;7.28;;;;;;;13.38;63.28;101150.56;5074187;28;20127;-70
2022/05/06 01:51:53;;;;;;;13.35;6.85;;;;;;;13.40;62.92;101147.88;5072683;28;20041;-71
2022/05/06 01:54:18;;;;;;;10.73;7.38;;;;;;;13.28;63.10;101141.09;5081195;28;20112;-70
2022/05/06 01:56:46;;;;;;;13.93;8.05;;;;;;;13.10;63.28;101144.09;5077700;28;20120;-71
2022/05/06 01:59:13;;;;;;;14.23;7.70;;;;;;;13.02;63.46;101129.28;5073916;28;20028;-71
2022/05/06 02:01:39;;;;;;;12.05;6.90;;;;;;;12.92;63.70;101147.94;5054147;28;20059;-71
2022/05/06 02:06:48;;;;;;;11.15;6.15;;;;;;;12.81;63.85;101145.53;5079161;28;20071;-70
2022/05/06 02:09:16;;;;;;;13.10;7.57;;;;;;;12.72;63.91;101146.53;5075219;28;20400;-71
2022/05/06 02:11:42;;;;;;;12.18;7.50;;;;;;;12.72;64.03;101148.31;5073835;28;20036;-70
2022/05/06 02:14:08;;;;;;;10.07;7.30;;;;;;;12.62;64.29;101154.66;5040497;28;20082;-70
2022/05/06 02:16:33;;;;;;;14.68;7.70;;;;;;;12.58;64.48;101146.78;5074910;28;20527;-70
2022/05/06 02:18:59;;;;;;;10.80;7.38;;;;;;;12.47;65.01;101146.09;5073690;28;20381;-71
2022/05/06 02:21:24;;;;;;;11.10;7.63;;;;;;;12.57;65.08;101147.69;5072727;28;20036;-71
2022/05/06 02:23:50;;;;;;;15.50;9.55;;;;;;;12.45;66.31;101145.28;5074749;28;20060;-71
2022/05/06 02:26:15;;;;;;;17.25;9.45;;;;;;;12.36;66.33;101145.41;5074231;28;20368;-70
2022/05/06 02:28:41;;;;;;;15.50;9.98;;;;;;;12.26;66.68;101143.84;5076330;28;20430;-71
2022/05/06 02:33:50;;;;;;;17.42;9.57;;;;;;;12.16;67.55;101150.16;5074555;28;20040;-70
2022/05/06 02:36:16;;;;;;;14.00;9.77;;;;;;;12.02;67.84;101143.34;5074972;28;20032;-71
2022/05/06 02:38:41;;;;;;;15.57;10.48;;;;;;;12.09;67.54;101146.75;5074849;28;20472;-71
2022/05/06 02:41:07;;;;;;;17.27;9.82;;;;;;;12.05;67.63;101142.44;5071205;28;20090;-71
2022/05/06 02:43:32;;;;;;;17.85;11.18;;;;;;;12.06;67.71;101139.75;5073196;28;20131;-72
2022/05/06 02:45:57;;;;;;;13.52;9.00;;;;;;;11.98;67.86;101141.66;5078440;28;20131;-71
2022/05/06 02:48:23;;;;;;;14.25;8.85;;;;;;;11.99;67.56;101147.78;5073427;28;20180;-72
2022/05/06 02:50:48;;;;;;;17.70;11.60;;;;;;;12.01;67.74;101152.16;5074299;28;20378;-71
2022/05/06 02:53:14;;;;;;;12.23;8.52;;;;;;;12.05;67.37;101148.56;5072102;28;20127;-71
2022/05/06 02:55:40;;;;;;;13.98;8.35;;;;;;;11.95;67.74;101156.63;5072745;28;20052;-69
2022/05/06 02:58:06;;;;;;;11.88;7.80;;;;;;;11.92;67.95;101154.91;5072886;28;20040;-71
2022/05/06 03:00:31;;;;;;;11.05;7.63;;;;;;;11.92;67.59;101162.78;5074503;28;20083;-71
2022/05/06 03:02:57;;;;;;;13.32;8.45;;;;;;;11.98;67.50;101169.75;5072552;28;20040;-71
2022/05/06 03:05:24;;;;;;;14.88;9.40;;;;;;;11.78;67.95;101167.38;5072962;28;20040;-71
2022/05/06 03:07:50;;;;;;;14.43;9.15;;;;;;;11.65;68.49;101163.16;5075416;28;20057;-71
2022/05/06 03:10:15;;;;;;;14.00;8.32;;;;;;;11.62;68.44;101174.59;5056191;28;20170;-71
2022/05/06 03:12:44;;;;;;;14.75;8.20;;;;;;;11.60;68.56;101173.75;5073699;28;20127;-71
2022/05/06 03:15:10;;;;;;;12.52;8.85;;;;;;;11.74;67.82;101170.94;5054598;28;20037;-71
2022/05/06 03:17:36;;;;;;;16.10;9.82;;;;;;;11.63;68.08;101173.72;5072825;28;20369;-71
2022/05/06 03:20:05;;;;;;;16.90;10.20;;;;;;;11.38;69.09;101175.78;5073750;28;20499;-71
2022/05/06 03:22:35;;;;;;;13.73;9.65;;;;;;;11.19;69.99;101183.03;5071106;28;20040;-71
2022/05/06 03:25:01;;;;;;;12.38;7.70;;;;;;;11.08;70.09;101182.25;5073169;28;20040;-71
2022/05/06 03:30:11;;;;;;;12.52;8.23;;;;;;;10.93;70.73;101188.59;5073026;28;20051;-71
2022/05/06 03:32:36;;;;;;;15.98;8.90;;;;;;;10.70;71.76;101195.81;5077518;28;20032;-73
2022/05/06 03:35:03;;;;;;;14.93;9.55;;;;;;;10.58;72.51;101202.06;5075158;28;20037;-71
2022/05/06 03:37:28;;;;;;;13.45;8.18;;;;;;;10.86;70.99;101210.56;5071135;28;20037;-72
2022/05/06 03:39:54;;;;;;;15.00;8.93;;;;;;;11.04;69.99;101201.59;5055842;28;20029;-71
2022/05/06 03:42:19;;;;;;;11.63;7.53;;;;;;;11.12;69.47;101193.63;5077705;28;20098;-71
2022/05/06 03:44:45;;;;;;;15.52;9.18;;;;;;;11.21;69.12;101201.41;5072922;28;20106;-71
2022/05/06 03:47:10;;;;;;;15.90;7.80;;;;;;;11.26;68.73;101197.84;5055610;28;20094;-71
2022/05/06 03:49:36;;;;;;;12.93;7.78;;;;;;;11.21;68.85;101204.03;5052132;28;20032;-72
2022/05/06 03:52:03;;;;;;;12.48;7.88;;;;;;;10.99;69.58;101199.03;5069039;28;20086;-72
2022/05/06 03:54:29;;;;;;;14.77;8.32;;;;;;;10.94;69.79;101203.47;5084949;28;20471;-71
2022/05/06 03:56:54;;;;;;;12.45;7.82;;;;;;;10.89;70.29;101207.00;5071859;28;20068;-71
2022/05/06 03:59:20;;;;;;;14.20;8.27;;;;;;;10.85;70.25;101216.69;5035652;28;20407;-71
2022/05/06 04:01:45;;;;;;;13.38;6.93;;;;;;;10.93;69.87;101213.97;5070769;28;20475;-72
2022/05/06 04:04:11;;;;;;;13.80;8.35;;;;;;;11.04;69.57;101215.63;5071991;28;20395;-71
2022/05/06 04:06:36;;;;;;;10.30;6.82;;;;;;;11.03;69.35;101227.03;5056987;28;20032;-71
2022/05/06 04:09:02;;;;;;;13.88;7.57;;;;;;;11.02;69.37;101227.06;5071527;28;20032;-70
2022/05/06 04:11:27;;;;;;;11.98;7.35;;;;;;;11.08;69.00;101227.84;5073127;28;20033;-71
2022/05/06 04:13:53;;;;;;;12.77;7.35;;;;;;;11.20;68.51;101226.84;5072346;28;20443;-70
2022/05/06 04:16:18;;;;;;;8.90;6.70;;;;;;;11.19;68.49;101222.47;5071947;28;20467;-71
2022/05/06 04:18:44;;;;;;;11.35;7.53;;;;;;;11.28;68.03;101218.88;5052349;28;20029;-71
2022/05/06 04:23:53;;;;;;;11.00;7.63;;;;;;;11.21;68.07;101215.47;5072388;28;20050;-70
2022/05/06 04:26:19;;;;;;;9.63;6.78;;;;;;;11.20;67.94;101212.81;5075496;28;20032;-71
2022/05/06 04:28:45;;;;;;;10.57;7.07;;;;;;;11.25;67.80;101208.38;5072652;28;20123;-70
2022/05/06 04:31:11;;;;;;;12.65;7.53;;;;;;;11.34;67.53;101205.66;5038406;28;20052;-71
2022/05/06 04:33:40;;;;;;;11.65;7.38;;;;;;;11.34;67.32;101216.19;5071237;28;20093;-71
2022/05/06 04:36:06;;;;;;;12.07;7.80;;;;;;;11.30;67.47;101210.09;5071993;28;20075;-71
2022/05/06 04:38:32;;;;;;;11.70;7.72;;;;;;;11.42;66.93;101209.06;5071598;28;20095;-71
2022/05/06 04:40:59;;;;;;;13.05;7.18;;;;;;;11.48;66.78;101213.38;5076503;28;20517;-71
2022/05/06 04:43:25;;;;;;;12.85;8.00;;;;;;;11.45;66.73;101219.56;5055310;28;20033;-74
2022/05/06 04:45:52;;;;;;;10.85;6.82;;;;;;;11.61;66.32;101220.25;5075010;28;20087;-72
2022/05/06 04:48:18;;;;;;;12.18;7.70;;;;;;;11.76;65.77;101217.41;5070359;28;20028;-71
2022/05/06 04:50:45;;;;;;;12.88;7.53;;;;;;;11.90;65.27;101217.25;5075325;28;20032;-70
2022/05/06 04:53:11;;;;;;;12.02;8.18;;;;;;;11.98;64.87;101212.75;5057959;28;20060;-72
2022/05/06 04:55:38;;;;;;;14.05;7.10;;;;;;;11.94;65.10;101220.72;5075976;28;20032;-74
2022/05/06 04:58:04;;;;;;;12.38;7.85;;;;;;;11.93;65.33;101226.88;5076405;28;20024;-74
2022/05/06 05:00:31;;;;;;;14.57;7.85;;;;;;;11.90;65.45;101222.53;5074011;28;20480;-75
2022/05/06 05:02:57;;;;;;;12.20;7.47;;;;;;;12.03;65.05;101215.31;5076091;28;20093;-73
2022/05/06 05:05:22;;;;;;;12.25;7.43;;;;;;;12.19;64.70;101219.47;5097398;28;20055;-73
2022/05/06 05:07:48;;;;;;;14.60;7.80;;;;;;;12.31;64.42;101224.56;5084630;28;20041;-72
2022/05/06 05:10:13;;;;;;;12.18;7.35;;;;;;;12.36;64.34;101221.84;5075086;28;20116;-67
2022/05/06 05:12:39;;;;;;;13.52;7.88;;;;;;;12.43;64.20;101220.84;5077156;28;20032;-73
2022/05/06 05:15:05;;;;;;;16.38;8.82;;;;;;;12.56;63.87;101232.06;5074422;28;20072;-70
2022/05/06 05:17:31;;;;;;;11.30;7.30;;;;;;;12.69;63.58;101230.13;5055009;28;20041;-71
2022/05/06 05:19:56;;;;;;;10.77;7.72;;;;;;;12.76;63.42;101229.09;5075999;28;20524;-70
2022/05/06 05:22:22;;;;;;;12.35;6.97;;;;;;;12.89;63.17;101229.78;5058331;28;20448;-70
2022/05/06 05:24:47;;;;;;;10.13;6.60;;;;;;;12.97;62.96;101231.38;5076760;28;20040;-68
2022/05/06 05:27:14;;;;;;;11.60;7.30;;;;;;;13.06;62.69;101225.91;5074011;28;20392;-71
2022/05/06 05:29:40;;;;;;;9.95;6.75;;;;;;;13.26;62.17;101227.34;5075139;28;20135;-71
2022/05/06 05:32:07;;;;;;;11.98;7.22;;;;;;;13.38;61.79;101232.38;5074025;28;20304;-71
2022/05/06 05:34:32;;;;;;;10.93;6.43;;;;;;;13.31;62.04;101231.63;5075747;28;20089;-72
2022/05/06 05:36:58;;;;;;;10.50;7.15;;;;;;;13.20;62.45;101227.41;5076139;28;20044;-71
2022/05/06 05:39:23;;;;;;;10.90;6.50;;;;;;;13.25;62.36;101229.13;5081195;28;20020;-71
2022/05/06 05:41:48;;;;;;;13.18;7.15;;;;;;;13.28;62.08;101238.72;5071993;28;20049;-70
2022/05/06 05:49:43;;;;;;;9.77;6.00;;;;;;;13.32;62.25;101227.22;5074353;28;20036;-70
2022/05/06 05:52:08;;;;;;;8.45;6.78;;;;;;;13.32;62.29;101229.84;5078183;28;20086;-69
2022/05/06 05:54:34;;;;;;;12.25;6.32;;;;;;;13.22;62.55;101228.28;5074650;28;20392;-70
2022/05/06 05:56:59;;;;;;;13.25;7.18;;;;;;;13.48;61.91;101238.34;5056339;28;20072;-69
2022/05/06 05:59:25;;;;;;;12.38;6.97;;;;;;;13.29;62.41;101236.09;5074579;28;20033;-70
2022/05/06 06:01:51;;;;;;;11.40;6.80;;;;;;;13.43;62.08;101232.28;5056871;28;20040;-71
2022/05/06 06:04:16;;;;;;;13.50;7.68;;;;;;;13.39;62.42;101228.84;5075154;28;20123;-70
2022/05/06 06:06:42;;;;;;;14.60;7.63;;;;;;;13.64;61.76;101234.50;5074007;28;20116;-71
2022/05/06 06:09:09;;;;;;;12.13;7.07;;;;;;;13.91;61.00;101233.03;5068122;28;20472;-71
2022/05/06 06:11:35;;;;;;;10.88;7.15;;;;;;;13.99;60.76;101241.66;5073304;28;20028;-71
2022/05/06 06:14:01;;;;;;;10.60;6.22;;;;;;;14.27;60.09;101235.75;5073678;28;20060;-70
2022/05/06 06:16:28;;;;;;;12.00;6.60;;;;;;;14.46;59.57;101241.47;5072147;28;20432;-72
2022/05/06 06:18:55;;;;;;;13.00;6.95;;;;;;;14.26;60.02;101234.88;5048932;28;20123;-70
2022/05/06 06:21:21;;;;;;;13.70;6.85;;;;;;;14.20;60.39;101236.78;5060753;28;20036;-66
2022/05/06 06:23:46;;;;;;;13.65;7.75;;;;;;;14.35;59.95;101232.94;5054538;28;20045;-73
2022/05/06 06:26:12;;;;;;;13.40;7.20;;;;;;;14.41;60.23;101244.25;5074196;28;20135;-70
2022/05/06 06:28:37;;;;;;;11.48;6.78;;;;;;;14.50;59.61;101237.91;5074084;28;20036;-71
2022/05/06 06:31:03;;;;;;;11.02;6.57;;;;;;;14.71;59.39;101236.50;5073960;28;20387;-72
2022/05/06 06:33:28;;;;;;;16.33;6.88;;;;;;;14.84;58.95;101235.28;5072748;28;20498;-73
2022/05/06 06:35:54;;;;;;;12.43;6.95;;;;;;;14.83;59.08;101228.22;5072523;28;20029;-72
2022/05/06 06:38:19;;;;;;;9.55;6.50;;;;;;;14.95;58.82;101227.91;5074914;28;20040;-72
2022/05/06 06:40:45;;;;;;;11.00;6.38;;;;;;;15.14;58.46;101228.31;5074506;28;20082;-72
2022/05/06 06:43:10;;;;;;;10.52;5.72;;;;;;;15.38;57.79;101224.09;5070328;28;20036;-71
2022/05/06 06:45:37;;;;;;;11.75;5.65;;;;;;;15.65;57.23;101230.44;5072606;28;20037;-71
2022/05/06 06:48:04;;;;;;;14.45;6.90;;;;;;;15.62;57.23;101229.63;5071572;28;20045;-72
2022/05/06 06:50:29;;;;;;;10.38;6.15;;;;;;;15.63;57.17;101231.34;5070861;28;20036;-72
2022/05/06 06:52:55;;;;;;;10.70;5.57;;;;;;;15.37;57.50;101232.09;5048370;28;20404;-71
2022/05/06 06:55:21;;;;;;;9.73;5.70;;;;;;;15.42;57.58;101231.06;5050027;28;20029;-73
2022/05/06 06:57:46;;;;;;;11.18;6.05;;;;;;;15.50;57.36;101237.00;5071113;28;20400;-70
2022/05/06 07:00:12;;;;;;;9.77;5.50;;;;;;;15.62;57.22;101232.28;5072349;28;20388;-70
2022/05/06 07:02:39;;;;;;;12.73;5.53;;;;;;;15.62;57.29;101233.13;5048882;28;20047;-70
2022/05/06 07:05:05;;;;;;;7.70;4.43;;;;;;;15.80;56.73;101242.38;5051939;28;20049;-71
2022/05/06 07:12:59;;;;;;;7.22;4.63;;;;;;;16.21;55.55;101235.78;5069947;28;20047;-72
2022/05/06 07:15:25;;;;;;;8.25;4.88;;;;;;;16.31;55.35;101238.16;5075575;28;20383;-70
2022/05/06 07:17:50;;;;;;;8.55;4.97;;;;;;;16.37;54.90;101233.53;5071771;28;20028;-71
2022/05/06 07:20:16;;;;;;;6.63;4.35;;;;;;;16.56;54.36;101239.13;5071863;28;20085;-70
2022/05/06 07:22:42;;;;;;;6.18;3.72;;;;;;;16.82;53.91;101246.22;5070665;28;20115;-71
2022/05/06 07:25:08;;;;;;;7.38;4.20;;;;;;;16.98;53.28;101252.75;5091598;28;20122;-70
2022/05/06 07:27:35;;;;;;;6.00;3.83;;;;;;;17.10;52.95;101254.09;5072569;28;20047;-72
2022/05/06 07:30:02;;;;;;;6.78;4.00;;;;;;;17.23;52.51;101244.81;5072258;28;20045;-73
2022/05/06 07:32:28;;;;;;;8.38;3.97;;;;;;;17.42;52.30;101249.44;5073093;28;20127;-71
2022/05/06 07:34:53;;;;;;;4.82;3.67;;;;;;;17.53;51.73;101241.09;5071187;28;20119;-71
2022/05/06 07:37:19;;;;;;;8.50;3.63;;;;;;;17.56;52.03;101249.81;5054009;28;20364;-70
2022/05/06 07:39:44;;;;;;;8.43;3.10;;;;;;;17.52;51.55;101247.34;5070292;28;20040;-72
2022/05/06 07:42:11;;;;;;;4.65;3.13;;;;;;;17.61;51.08;101242.53;5074664;28;20471;-71
2022/05/06 07:44:37;;;;;;;10.07;3.40;;;;;;;17.65;50.54;101253.91;5071936;28;20048;-71
2022/05/06 07:47:02;;;;;;;7.47;3.90;;;;;;;17.63;50.33;101247.78;5052022;28;20395;-71
2022/05/06 07:49:28;;;;;;;5.95;3.40;;;;;;;17.78;50.47;101243.72;5073297;28;20032;-71
2022/05/06 07:51:53;;;;;;;6.68;3.28;;;;;;;17.90;50.04;101249.44;5071957;28;20043;-70
2022/05/06 07:54:18;;;;;;;3.83;2.60;;;;;;;17.86;49.81;101255.78;5072709;28;20028;-72
2022/05/06 07:56:44;;;;;;;4.28;3.13;;;;;;;17.95;49.46;101247.47;5071593;28;20029;-72
2022/05/06 07:59:09;;;;;;;7.97;3.15;;;;;;;18.27;49.36;101240.00;5073060;28;20040;-72
2022/05/06 08:04:35;;;;;;;4.30;2.88;;;;;;;18.85;47.80;101235.00;5073012;28;20051;-71
2022/05/06 08:07:01;;;;;;;5.82;3.00;;;;;;;18.93;47.05;101240.84;5057394;28;20105;-72
2022/05/06 08:09:27;;;;;;;4.22;2.58;;;;;;;19.20;46.76;101251.25;5069523;28;20127;-71
2022/05/06 08:11:52;;;;;;;4.72;3.25;;;;;;;19.32;46.44;101245.38;5071406;28;20532;-72
2022/05/06 08:14:19;;;;;;;3.85;2.65;;;;;;;19.39;46.72;101246.84;5071457;28;20035;-72
2022/05/06 08:16:45;;;;;;;5.13;2.30;;;;;;;19.81;45.79;101235.19;5071355;28;20516;-73
2022/05/06 08:19:11;;;;;;;5.05;2.85;;;;;;;19.72;45.57;101242.75;5071132;28;20032;-70
2022/05/06 08:21:36;;;;;;;5.43;2.60;;;;;;;19.93;45.51;101239.06;5072257;28;20051;-72
2022/05/06 08:24:02;;;;;;;3.30;1.90;;;;;;;20.21;44.31;101241.28;5071561;28;20039;-73
2022/05/06 08:26:28;;;;;;;6.03;2.10;;;;;;;20.19;43.89;101243.19;5070981;28;20025;-71
2022/05/06 08:28:53;;;;;;;4.18;2.08;;;;;;;19.93;43.93;101247.06;5069287;28;20040;-72
2022/05/06 08:31:20;;;;;;;5.60;2.33;;;;;;;19.43;45.27;101253.78;5070863;28;20032;-71
2022/05/06 08:33:45;;;;;;;3.63;1.50;;;;;;;19.06;45.56;101241.19;5068732;28;20503;-71
2022/05/06 08:36:11;;;;;;;2.28;1.42;;;;;;;18.93;45.80;101238.19;5072464;28;20036;-73
2022/05/06 08:38:37;;;;;;;3.65;1.20;;;;;;;19.24;44.58;101247.53;5070914;28;20499;-74
2022/05/06 08:41:03;;;;;;;2.65;1.10;;;;;;;19.57;44.07;101238.94;5072406;28;20039;-73
2022/05/06 08:43:28;;;;;;;3.28;1.50;;;;;;;19.42;44.20;101246.69;5070260;28;20448;-73
2022/05/06 08:50:50;;;;;;;4.28;1.48;;;;;;;19.78;43.24;101245.13;5071845;28;20094;-73
2022/05/06 08:51:45;;;;;;;1.80;1.38;;;;;;;19.62;42.58;101253.81;5071919;28;20032;-73
2022/05/06 08:54:11;;;;;;;3.97;1.30;;;;;;;19.49;41.41;101254.41;5070656;28;20040;-73
2022/05/06 08:56:36;;;;;;;5.03;2.60;;;;;;;19.66;41.85;101249.22;5068330;28;20041;-73
2022/05/06 08:59:01;;;;;;;4.72;1.48;;;;;;;20.18;40.72;101249.44;5072273;28;20119;-73
2022/05/06 09:01:27;;;;;;;3.65;1.40;;;;;;;20.56;40.17;101246.75;5053979;28;20400;-72
2022/05/06 09:03:53;;;;;;;2.38;1.25;;;;;;;20.63;40.46;101250.84;5072191;28;20059;-72
2022/05/06 09:06:23;;;;;;;3.05;1.30;;;;;;;20.37;40.49;101244.94;5072116;28;20101;-71
2022/05/06 09:08:51;;;;;;;2.95;1.30;;;;;;;20.25;40.58;101258.88;5070165;28;20040;-73
2022/05/06 09:12:40;;;;;;;3.55;1.38;;;;;;;20.17;40.75;101256.59;5071625;28;20089;-72
2022/05/06 09:14:03;;;;;;;2.60;1.45;;;;;;;20.16;40.00;101259.34;5071014;28;20067;-74
2022/05/06 09:16:41;;;;;;;2.50;1.40;;;;;;;20.26;39.95;101257.06;5071738;28;20465;-73
2022/05/06 09:19:22;;;;;;;3.58;1.20;;;;;;;20.08;38.91;101261.50;5069845;28;20048;-74
2022/05/06 09:22:06;;;;;;;1.98;1.17;;;;;;;20.10;39.02;101264.94;5069430;28;20047;-76
2022/05/06 09:24:33;;;;;;;2.17;1.20;;;;;;;20.00;40.49;101264.53;5069763;28;20154;-75
2022/05/06 09:27:00;;;;;;;2.65;1.42;;;;;;;19.89;38.16;101267.69;5071266;28;20044;-75
2022/05/06 09:29:33;;;;;;;3.20;1.60;;;;;;;20.35;39.26;101260.19;5070765;28;20489;-77
2022/05/06 09:32:20;;;;;;;2.50;1.60;;;;;;;20.60;36.81;101261.69;5061433;28;20036;-75
2022/05/06 09:34:51;;;;;;;4.72;1.60;;;;;;;20.72;38.10;101255.72;5073481;28;20040;-74
2022/05/06 09:37:40;;;;;;;5.55;1.45;;;;;;;20.38;37.54;101264.50;5073647;28;20683;-75
2022/05/06 09:40:22;;;;;;;3.67;1.73;;;;;;;20.04;37.50;101267.91;5070080;28;20541;-74
2022/05/06 09:42:57;;;;;;;2.97;1.42;;;;;;;19.73;37.67;101274.66;5072800;28;20043;-74
2022/05/06 09:45:39;;;;;;;3.88;1.83;;;;;;;19.56;37.34;101279.88;5076688;28;20209;-74
2022/05/06 09:48:08;;;;;;;1.98;1.27;;;;;;;19.76;38.93;101266.53;5074292;28;20036;-74
2022/05/06 09:50:39;;;;;;;3.03;1.50;;;;;;;20.15;37.76;101260.28;5075213;28;20039;-76
2022/05/06 09:53:13;;;;;;;3.85;1.60;;;;;;;20.20;36.85;101260.91;5071362;28;20177;-73
2022/05/06 09:55:46;;;;;;;3.28;1.42;;;;;;;20.43;37.23;101257.16;5072922;28;20040;-75
2022/05/06 09:58:13;;;;;;;4.63;1.30;;;;;;;20.69;37.44;101263.03;5058877;28;20032;-74
2022/05/06 10:00:39;;;;;;;3.22;1.40;;;;;;;20.98;36.44;101275.75;5075808;28;20024;-74
2022/05/06 10:03:06;;;;;;;4.75;1.50;;;;;;;21.08;36.68;101262.81;5074341;28;20028;-74
2022/05/06 10:05:34;;;;;;;4.18;1.45;;;;;;;21.29;35.43;101267.03;5074184;28;20052;-74
2022/05/06 10:08:17;;;;;;;6.60;1.50;;;;;;;21.16;34.07;101266.81;5057906;28;20028;-74
2022/05/06 10:11:01;;;;;;;2.65;1.50;;;;;;;21.19;33.65;101263.13;5074838;28;20096;-75
2022/05/06 10:13:34;;;;;;;4.93;1.45;;;;;;;21.50;34.05;101266.88;5074167;28;20040;-74
2022/05/06 10:16:00;;;;;;;2.67;1.60;;;;;;;20.82;35.34;101275.66;5074222;28;20020;-73
2022/05/06 10:18:34;;;;;;;3.05;1.35;;;;;;;20.69;34.73;101269.22;5073922;28;20115;-74
2022/05/06 10:21:01;;;;;;;3.25;1.67;;;;;;;20.70;36.29;101275.44;5075369;28;20017;-73
2022/05/06 10:23:57;;;;;;;4.68;1.48;;;;;;;21.09;34.82;101268.06;5073201;28;20484;-71
2022/05/06 10:26:34;;;;;;;4.10;1.40;;;;;;;21.10;36.58;101275.13;5068096;28;20047;-73
2022/05/06 10:34:30;;;;;;;3.03;1.67;;;;;;;21.56;35.00;101279.94;5082361;28;20043;-71
2022/05/06 10:37:00;;;;;;;5.40;1.90;;;;;;;21.95;34.79;101274.25;5088652;28;20476;-73
2022/05/06 10:39:32;;;;;;;2.65;1.33;;;;;;;22.51;31.83;101264.88;5092995;28;20081;-73
2022/05/06 10:42:09;;;;;;;1.98;0.98;;;;;;;22.75;31.17;101278.66;5071914;28;20071;-73
2022/05/06 10:44:42;;;;;;;1.90;1.20;;;;;;;22.68;33.01;101268.38;5074537;28;20458;-74
2022/05/06 10:47:11;;;;;;;3.42;1.65;;;;;;;22.19;34.04;101274.72;5094269;28;20036;-75
2022/05/06 10:49:39;;;;;;;2.08;1.23;;;;;;;21.81;34.94;101277.66;5075762;28;20044;-75
2022/05/06 10:52:13;;;;;;;2.72;1.50;;;;;;;21.61;35.28;101278.72;5073482;28;20036;-74
2022/05/06 10:54:42;;;;;;;2.92;1.15;;;;;;;21.57;36.29;101268.28;5071688;28;20041;-75
2022/05/06 10:57:09;;;;;;;2.20;1.23;;;;;;;21.35;36.48;101274.78;5072627;28;20041;-75
2022/05/06 10:59:54;;;;;;;4.10;1.40;;;;;;;21.49;35.21;101266.03;5076949;28;20101;-74
2022/05/06 11:02:22;;;;;;;3.40;1.13;;;;;;;21.38;35.54;101266.59;5089161;28;20051;-74
2022/05/06 11:04:50;;;;;;;2.85;1.25;;;;;;;;;;5073867;28;20127;-74
2022/05/06 11:07:17;;;;;;;1.65;0.50;;;;;;;21.95;35.17;101258.19;5072867;28;20029;-73
2022/05/06 11:09:43;;;;;;;3.78;1.10;;;;;;;22.25;34.74;101252.94;5074136;28;20040;-74
2022/05/06 11:12:09;;;;;;;8.00;1.17;;;;;;;22.52;34.97;101257.69;5072670;28;20081;-72
2022/05/06 11:14:34;;;;;;;2.97;1.27;;;;;;;22.63;35.08;101269.50;5073048;28;20032;-72
2022/05/06 11:17:18;;;;;;;1.65;0.90;;;;;;;22.41;35.32;101268.16;5074303;28;20045;-70
2022/05/06 11:19:44;;;;;;;2.47;0.82;;;;;;;22.70;35.27;101264.66;5055183;28;20044;-74
2022/05/06 11:22:10;;;;;;;2.78;1.13;;;;;;;22.50;36.04;101267.59;5080136;28;20047;-73
2022/05/06 11:24:36;;;;;;;2.00;1.25;;;;;;;22.44;36.21;101260.81;5087628;28;20067;-73
2022/05/06 11:27:31;;;;;;;2.75;1.45;;;;;;;22.17;36.07;101268.56;5080057;28;20151;-74
2022/05/06 11:29:59;;;;;;;3.00;1.40;;;;;;;22.34;36.59;101262.25;5068438;28;20484;-73
2022/05/06 11:32:26;;;;;;;1.75;1.00;;;;;;;22.43;36.53;101258.22;5082505;28;20560;-74
2022/05/06 11:34:58;;;;;;;4.20;1.40;;;;;;;22.26;36.45;101264.50;5072357;28;20036;-74
2022/05/06 11:37:26;;;;;;;4.13;1.55;;;;;;;22.26;36.73;101253.81;5073312;28;20426;-74
2022/05/06 11:40:18;;;;;;;2.17;1.20;;;;;;;22.25;36.43;101247.59;5054968;28;20399;-74
2022/05/06 11:42:38;;;;;;;3.22;1.20;;;;;;;22.46;36.25;101250.88;5075034;28;20028;-73
2022/05/06 11:47:48;;;;;;;2.95;1.50;;;;;;;22.65;36.34;101253.34;5070862;28;20047;-72
2022/05/06 11:50:14;;;;;;;2.78;1.38;;;;;;;22.84;36.00;101256.66;5070783;28;20077;-73
2022/05/06 11:52:40;;;;;;;3.38;1.52;;;;;;;22.69;35.39;101256.69;5072524;28;20028;-72
2022/05/06 11:55:07;;;;;;;2.55;1.25;;;;;;;22.82;35.48;101255.91;5070070;28;20036;-74
2022/05/06 11:57:38;;;;;;;3.03;1.10;;;;;;;22.66;35.33;101247.06;5054901;28;20427;-75
2022/05/06 12:00:07;;;;;;;2.40;1.33;;;;;;;22.59;35.21;101246.53;5074137;28;20070;-73